Aérodrome :
LOGIN :

S'inscrire | Disclaimer

   EN    FR    IT 

 










Légende :    VFR   VFR Marginal   IFR   IFR Intensif   IFR Très Intensif
Visi : 
Plafond : 
>= 8 km
>= 3000ft
5 à 8 km
1000 à 3000 ft
1500m à 5 km
500 à 1000 ft
800 à 1500m
200 à 500 ft
< 800m
< 200 ft
Symboles :   Orages  Brouillard  Fortes neiges  Fortes précipitations  Vent > 20 kt
SIGMETs :   Divers  Orages  Givrage  Turbulence  Onde Orograph.  Cendres Volcan.







- Altitude de l'aérodrome : 870 ft
- Code IATA : ETZ
- Voir les cartes d'approche


LFJL - Metz Nancy Lorraine

DERNIER METAR :
  • 092330Z AUTO 27014KT 9999 FEW039 05/03 Q1019 TEMPO BKN013 BKN025

METARs EXPIRÉS :
  • 092300Z AUTO 27014KT 9999 FEW042 06/03 Q1019 TEMPO BKN013 BKN025
  • 092230Z AUTO 27012KT 9999 FEW018 BKN040 06/03 Q1019 TEMPO BKN013 BKN025
  • 092200Z AUTO 27012KT 9999 SCT028 BKN038 06/03 Q1018 TEMPO BKN013 BKN025
  • 092130Z AUTO 28012KT CAVOK 06/03 Q1018 TEMPO BKN013 BKN025
  • 092100Z AUTO 29012KT 9999 FEW022 SCT029 06/03 Q1017 NOSIG

TAF TAF LFJL
Valide du 10 à 00h jusqu'au 11 à 00h UTC


092300Z 1000/1024 29013KT 9999 FEW015 BKN030
PROB40
TEMPO 1000/1009 5000 -RA BKN013 BKN025
TEMPO 1018/1022 BKN013
Pas de NOTAMs connus pour ce terrain.



MET'MAP, la Météo Aéronautique d'un coup d'oeil ! - Copyright ORBIFLY Décembre 2007 - Disclaimer

ORBIFLY MET'MAP TEAM :

Programmation & Développement : Alexandra Zaïnal
Conception & Développement : Baudouin d'Aumeries
Co-Programmation & Développement : Marc-Olivier Méhu
Soutien technique & logistique : Manuel Goepfert

Contact : metmap@orbifly.com




SOURCES & CREDITS :

   NOAA